Time;durP1;ratioP1;P1;durP2;ratioP2;P2;SDS_P1;SDS_P2;PMS_P1;PMS_P2;Temp;Humidity;BMP_temperature;BMP_pressure;BME280_temperature;BME280_humidity;BME280_pressure;Samples;Min_cycle;Max_cycle;Signal;HPM_P1;HPM_P2
2022/04/21 00:01:01;;;;;;;1.07;0.60;;;20.10;57.10;;;;;;5055019;28;20176;-72
2022/04/21 00:03:28;;;;;;;1.83;1.00;;;20.30;56.70;;;;;;5049330;28;20175;-73
2022/04/21 00:05:56;;;;;;;2.13;1.10;;;20.40;56.70;;;;;;5050333;28;20184;-72
2022/04/21 00:08:23;;;;;;;3.30;1.13;;;20.50;55.90;;;;;;5038072;28;20824;-72
2022/04/21 00:10:50;;;;;;;2.13;1.00;;;20.40;56.40;;;;;;5059425;28;20172;-72
2022/04/21 00:13:18;;;;;;;2.03;0.93;;;20.60;56.50;;;;;;5060180;28;20306;-72
2022/04/21 00:15:46;;;;;;;2.83;1.27;;;20.80;56.20;;;;;;5049834;28;20183;-72
2022/04/21 00:18:13;;;;;;;3.03;1.60;;;21.10;55.60;;;;;;5055077;28;20689;-72
2022/04/21 00:20:41;;;;;;;1.90;1.00;;;21.00;55.00;;;;;;5052395;28;20180;-71
2022/04/21 00:23:26;;;;;;;3.33;1.33;;;21.20;54.80;;;;;;5083198;28;20184;-72
2022/04/21 00:26:01;;;;;;;2.10;1.30;;;21.20;54.60;;;;;;5054111;28;20200;-70
2022/04/21 00:28:30;;;;;;;2.70;1.17;;;21.30;54.80;;;;;;5062722;28;20190;-72
2022/04/21 00:30:58;;;;;;;4.60;1.17;;;21.50;54.10;;;;;;5074663;28;20266;-74
2022/04/21 00:33:25;;;;;;;3.37;1.07;;;21.50;53.90;;;;;;5061703;28;20195;-72
2022/04/21 00:35:53;;;;;;;2.70;1.27;;;21.80;54.10;;;;;;5073574;28;20179;-71
2022/04/21 00:38:21;;;;;;;5.47;1.27;;;21.90;53.90;;;;;;5071031;28;20257;-72
2022/04/21 00:40:49;;;;;;;4.33;1.27;;;22.00;53.40;;;;;;5061303;28;20184;-73
2022/04/21 00:43:17;;;;;;;4.93;1.23;;;22.20;53.30;;;;;;5052422;28;20685;-73
2022/04/21 00:45:45;;;;;;;3.53;1.47;;;22.20;53.50;;;;;;5052032;28;20679;-73
2022/04/21 00:48:13;;;;;;;2.30;1.00;;;22.10;53.90;;;;;;5052790;28;20164;-72
2022/04/21 00:50:41;;;;;;;5.87;1.27;;;22.10;54.50;;;;;;5054464;28;20175;-73
2022/04/21 00:53:09;;;;;;;4.33;1.00;;;22.30;55.30;;;;;;5054220;28;20180;-72
2022/04/21 00:55:39;;;;;;;1.57;1.00;;;22.40;55.10;;;;;;5054133;28;20180;-73
2022/04/21 00:58:07;;;;;;;5.37;1.13;;;22.50;55.40;;;;;;5052092;28;20309;-72
2022/04/21 01:00:36;;;;;;;3.47;1.10;;;22.80;55.10;;;;;;5053880;28;20270;-77
2022/04/21 01:03:07;;;;;;;4.27;1.30;;;22.80;54.40;;;;;;5045598;28;20190;-72
2022/04/21 01:05:35;;;;;;;3.20;1.30;;;22.70;54.30;;;;;;5053773;28;20196;-72
2022/04/21 01:08:04;;;;;;;4.67;1.37;;;22.80;54.60;;;;;;5052403;28;20270;-74
2022/04/21 01:10:37;;;;;;;2.33;1.07;;;22.60;55.50;;;;;;5050317;28;20238;-78
2022/04/21 01:13:09;;;;;;;3.77;1.10;;;22.60;55.90;;;;;;5053394;28;20230;-74
2022/04/21 01:15:38;;;;;;;3.43;1.60;;;22.30;56.60;;;;;;5054239;28;20647;-74
2022/04/21 01:18:07;;;;;;;5.10;2.90;;;22.60;56.70;;;;;;5051696;28;20235;-73
2022/04/21 01:20:35;;;;;;;7.20;1.73;;;22.50;57.00;;;;;;5051178;28;20183;-74
2022/04/21 01:23:02;;;;;;;5.50;2.37;;;22.20;58.60;;;;;;5047676;28;20331;-72
2022/04/21 01:25:40;;;;;;;3.10;1.00;;;22.00;59.50;;;;;;5053290;28;20191;-72
2022/04/21 01:28:10;;;;;;;3.20;1.37;;;22.30;59.10;;;;;;5051521;28;20188;-77
2022/04/21 01:30:38;;;;;;;5.73;1.60;;;22.10;59.40;;;;;;5051119;28;20222;-74
2022/04/21 01:33:06;;;;;;;6.30;1.93;;;22.00;60.90;;;;;;5052446;28;20188;-73
2022/04/21 01:35:33;;;;;;;11.13;2.67;;;21.80;62.50;;;;;;5053028;28;20558;-74
2022/04/21 01:43:31;;;;;;;10.13;1.70;;;22.00;62.70;;;;;;5047484;28;20210;-72
2022/04/21 01:45:58;;;;;;;4.73;1.60;;;21.70;64.20;;;;;;5051033;28;20278;-75
2022/04/21 01:48:26;;;;;;;12.60;2.10;;;21.80;64.80;;;;;;5051461;28;20188;-75
2022/04/21 01:50:53;;;;;;;7.83;1.50;;;22.40;64.20;;;;;;5052142;28;20198;-75
2022/04/21 01:53:21;;;;;;;7.73;1.80;;;22.60;64.00;;;;;;5049168;28;20179;-75
2022/04/21 01:55:48;;;;;;;9.53;2.17;;;23.00;62.70;;;;;;5052136;28;20230;-75
2022/04/21 01:58:15;;;;;;;5.03;1.50;;;23.40;61.10;;;;;;5048387;28;20341;-75
2022/04/21 02:00:43;;;;;;;4.40;1.30;;;23.40;60.20;;;;;;5048535;28;20187;-75
2022/04/21 02:03:10;;;;;;;7.50;1.63;;;23.10;61.80;;;;;;5082712;28;20172;-77
2022/04/21 02:05:38;;;;;;;7.10;1.80;;;22.90;62.30;;;;;;5052116;28;20262;-79
2022/04/21 02:08:07;;;;;;;5.70;1.60;;;23.30;62.00;;;;;;5052578;28;20182;-78
2022/04/21 02:10:34;;;;;;;5.90;1.73;;;23.20;62.70;;;;;;5051373;28;20653;-74
2022/04/21 02:13:02;;;;;;;6.27;2.03;;;22.80;63.90;;;;;;5052944;28;20571;-75
2022/04/21 02:15:30;;;;;;;6.23;1.80;;;22.60;65.00;;;;;;5052200;28;20184;-76
2022/04/21 02:17:57;;;;;;;5.20;1.63;;;22.10;66.60;;;;;;5052613;28;20250;-76
2022/04/21 02:20:25;;;;;;;5.73;1.30;;;21.40;73.40;;;;;;5052440;28;20520;-76
2022/04/21 02:22:52;;;;;;;7.97;1.93;;;20.80;73.70;;;;;;5052308;28;20605;-74
2022/04/21 02:25:19;;;;;;;8.60;2.43;;;20.40;76.80;;;;;;5052776;28;20254;-77
2022/04/21 02:27:48;;;;;;;8.77;2.00;;;20.00;79.70;;;;;;5047981;28;20173;-75
2022/04/21 02:30:18;;;;;;;5.60;1.43;;;19.60;79.30;;;;;;5041754;28;20191;-79
2022/04/21 02:32:46;;;;;;;9.23;5.27;;;19.30;78.50;;;;;;5062703;28;20171;-79
2022/04/21 02:35:15;;;;;;;4.93;1.90;;;19.30;80.90;;;;;;5055878;28;20195;-78
2022/04/21 02:37:45;;;;;;;8.97;1.90;;;19.40;80.60;;;;;;5052394;28;20680;-79
2022/04/21 02:40:13;;;;;;;9.13;2.53;;;19.30;81.00;;;;;;5052514;28;20183;-81
2022/04/21 02:42:41;;;;;;;7.80;2.30;;;19.20;83.00;;;;;;5051810;28;20255;-77
2022/04/21 02:45:11;;;;;;;15.43;2.90;;;19.20;82.90;;;;;;5052606;28;20615;-77
2022/04/21 02:47:43;;;;;;;8.53;2.67;;;19.00;84.60;;;;;;5051983;28;20182;-81
2022/04/21 02:50:13;;;;;;;11.53;3.10;;;18.90;85.40;;;;;;5052619;28;20187;-80
2022/04/21 02:52:41;;;;;;;9.03;2.70;;;18.80;86.50;;;;;;5049626;28;20168;-80
2022/04/21 02:57:57;;;;;;;10.07;2.43;;;18.60;86.60;;;;;;5045799;28;20231;-77
2022/04/21 03:00:25;;;;;;;12.33;2.40;;;18.40;87.50;;;;;;5048498;28;20520;-77
2022/04/21 03:02:52;;;;;;;11.10;3.10;;;18.60;88.00;;;;;;5059895;28;20198;-79
2022/04/21 03:05:20;;;;;;;15.10;3.67;;;18.50;87.70;;;;;;5055847;28;20341;-77
2022/04/21 03:07:47;;;;;;;12.70;3.37;;;18.60;88.20;;;;;;5055007;28;20771;-77
2022/04/21 03:10:15;;;;;;;11.83;3.00;;;18.60;88.20;;;;;;5070801;28;20195;-77
2022/04/21 03:12:53;;;;;;;10.27;3.50;;;18.50;87.40;;;;;;5055126;28;20191;-83
2022/04/21 03:15:21;;;;;;;14.33;3.20;;;18.60;88.10;;;;;;5052799;28;20248;-82
2022/04/21 03:17:49;;;;;;;12.13;3.27;;;18.70;87.80;;;;;;5054666;28;20224;-79
2022/04/21 03:26:17;;;;;;;16.40;4.07;;;18.50;86.50;;;;;;5051980;28;20186;-83
2022/04/21 03:28:48;;;;;;;10.23;3.33;;;18.30;87.60;;;;;;5049508;28;20190;-79
2022/04/21 03:31:24;;;;;;;12.40;3.03;;;18.20;87.50;;;;;;5051320;28;20208;-84
2022/04/21 03:34:02;;;;;;;;;;;;;;;;;;;;;
2022/04/21 03:36:31;;;;;;;10.17;2.87;;;17.90;87.80;;;;;;5055150;28;20189;-83
2022/04/21 03:38:59;;;;;;;11.10;3.07;;;17.80;88.00;;;;;;5050965;28;20215;-78
2022/04/21 03:41:26;;;;;;;13.83;2.70;;;17.80;88.30;;;;;;5053870;28;20214;-77
2022/04/21 03:43:58;;;;;;;16.20;3.13;;;17.80;88.30;;;;;;5083530;28;20183;-81
2022/04/21 03:46:28;;;;;;;15.63;3.53;;;17.90;88.20;;;;;;5038717;28;20179;-80
2022/04/21 03:48:58;;;;;;;11.77;2.93;;;17.90;88.30;;;;;;5052193;28;20536;-78
2022/04/21 03:51:41;;;;;;;15.03;2.73;;;18.00;87.50;;;;;;5047437;28;20723;-81
2022/04/21 03:54:11;;;;;;;7.90;2.30;;;17.90;86.00;;;;;;5051728;28;20179;-84
2022/04/21 03:56:45;;;;;;;11.90;2.50;;;17.90;85.10;;;;;;5054010;28;20662;-85
2022/04/21 03:59:19;;;;;;;12.23;2.73;;;18.00;84.80;;;;;;5054066;28;20214;-82
2022/04/21 04:02:17;;;;;;;10.77;2.73;;;18.00;84.70;;;;;;5046496;28;20273;-82
2022/04/21 04:04:45;;;;;;;17.40;2.80;;;18.10;84.00;;;;;;5049005;28;20545;-78
2022/04/21 04:12:43;;;;;;;13.67;2.67;;;18.30;83.80;;;;;;5040344;28;20252;-75
2022/04/21 04:15:11;;;;;;;14.43;3.03;;;18.40;83.40;;;;;;5050759;28;20184;-77
2022/04/21 04:17:38;;;;;;;9.77;2.33;;;18.40;80.90;;;;;;5051192;28;20294;-74
2022/04/21 04:20:09;;;;;;;10.27;2.10;;;18.50;80.20;;;;;;5053219;28;20197;-75
2022/04/21 04:22:40;;;;;;;8.67;2.20;;;18.50;81.50;;;;;;5045784;28;20254;-75
2022/04/21 04:25:10;;;;;;;11.07;2.37;;;18.50;80.50;;;;;;5051445;28;20268;-75
2022/04/21 04:27:38;;;;;;;17.67;3.10;;;18.50;80.40;;;;;;5048182;28;20195;-73
2022/04/21 04:30:08;;;;;;;7.27;2.20;;;18.60;80.70;;;;;;5048588;28;20214;-81
2022/04/21 04:32:36;;;;;;;10.07;2.20;;;18.60;80.70;;;;;;5055297;28;20199;-75
2022/04/21 04:35:04;;;;;;;11.87;2.30;;;18.70;80.80;;;;;;5053962;28;20194;-77
2022/04/21 04:37:32;;;;;;;10.33;2.57;;;18.70;80.60;;;;;;5050123;28;20226;-74
2022/04/21 04:40:00;;;;;;;8.93;5.07;;;18.60;79.10;;;;;;5044803;28;20184;-76
2022/04/21 04:42:28;;;;;;;12.63;3.20;;;18.70;78.60;;;;;;5053329;28;20326;-73
2022/04/21 04:47:41;;;;;;;11.40;2.57;;;18.80;77.70;;;;;;5048734;28;20857;-75
2022/04/21 04:50:10;;;;;;;9.90;2.03;;;19.00;77.30;;;;;;5048044;28;20250;-76
2022/04/21 04:52:38;;;;;;;7.80;3.00;;;18.90;76.20;;;;;;5050565;28;20188;-74
2022/04/21 04:55:11;;;;;;;11.67;4.30;;;19.00;74.40;;;;;;5038671;28;20271;-71
2022/04/21 04:57:39;;;;;;;8.70;2.13;;;19.00;72.70;;;;;;5045726;28;20208;-73
2022/04/21 05:00:10;;;;;;;12.10;1.80;;;19.00;73.00;;;;;;5050498;28;20179;-74
2022/04/21 05:02:37;;;;;;;8.53;1.77;;;19.00;72.90;;;;;;5051467;28;20289;-74
2022/04/21 05:05:05;;;;;;;8.43;1.87;;;19.00;73.10;;;;;;5051593;28;20199;-74
2022/04/21 05:07:34;;;;;;;6.97;1.80;;;19.10;73.20;;;;;;5048188;28;20176;-74
2022/04/21 05:10:03;;;;;;;7.80;1.70;;;19.10;72.90;;;;;;5056428;28;20179;-74
2022/04/21 05:12:30;;;;;;;8.03;1.70;;;19.10;72.80;;;;;;5054268;28;20263;-75
2022/04/21 05:15:01;;;;;;;9.93;5.63;;;19.20;71.90;;;;;;5053265;28;20199;-76
2022/04/21 05:17:31;;;;;;;4.57;2.07;;;19.20;73.50;;;;;;5052460;28;20211;-75
2022/04/21 05:19:59;;;;;;;10.60;4.07;;;19.30;72.40;;;;;;5057131;28;20200;-74
2022/04/21 05:22:34;;;;;;;8.47;2.87;;;19.40;72.40;;;;;;5053490;28;20203;-74
2022/04/21 05:25:03;;;;;;;9.50;2.80;;;19.40;71.60;;;;;;5050021;28;20178;-75
2022/04/21 05:27:31;;;;;;;6.57;1.60;;;19.40;70.60;;;;;;5053732;28;20245;-73
2022/04/21 05:32:45;;;;;;;5.73;1.70;;;19.30;69.50;;;;;;5054773;28;20237;-72
2022/04/21 05:35:14;;;;;;;8.63;1.70;;;19.30;69.80;;;;;;5053461;28;20172;-71
2022/04/21 05:37:41;;;;;;;4.93;1.40;;;19.30;69.90;;;;;;5051742;28;20219;-71
2022/04/21 05:40:09;;;;;;;5.43;2.03;;;19.20;69.90;;;;;;5050918;28;20581;-73
2022/04/21 05:42:45;;;;;;;16.67;3.03;;;19.20;69.90;;;;;;5060995;28;20231;-72
2022/04/21 05:45:13;;;;;;;13.63;2.23;;;19.30;70.40;;;;;;5071890;28;20182;-73
2022/04/21 05:47:42;;;;;;;11.73;1.93;;;19.30;70.00;;;;;;5058084;28;20207;-74
2022/04/21 05:50:10;;;;;;;8.53;3.40;;;19.30;70.00;;;;;;5042539;28;20549;-73
2022/04/21 05:52:40;;;;;;;11.97;4.20;;;19.30;70.90;;;;;;5051932;28;20337;-75
2022/04/21 05:55:08;;;;;;;6.80;2.03;;;19.30;70.70;;;;;;5042552;28;20279;-78
2022/04/21 05:57:40;;;;;;;9.17;2.27;;;19.20;71.40;;;;;;5044936;28;20651;-74
2022/04/21 06:00:08;;;;;;;14.30;2.13;;;19.20;71.40;;;;;;5070482;28;20199;-71
2022/04/21 06:02:37;;;;;;;12.50;2.50;;;19.10;71.70;;;;;;5069683;28;20191;-72
2022/04/21 06:05:05;;;;;;;7.23;2.23;;;19.10;71.20;;;;;;5061484;28;20652;-71
2022/04/21 06:07:33;;;;;;;12.07;1.80;;;19.10;72.40;;;;;;5054730;28;20212;-71
2022/04/21 06:10:00;;;;;;;11.50;2.40;;;19.10;72.20;;;;;;5052003;28;20187;-73
2022/04/21 06:12:28;;;;;;;7.37;1.80;;;19.10;71.70;;;;;;5054710;28;20244;-74
2022/04/21 06:14:55;;;;;;;7.27;2.20;;;19.10;71.60;;;;;;5054865;28;20187;-74
2022/04/21 06:17:23;;;;;;;6.73;2.20;;;19.10;71.00;;;;;;5052299;28;20199;-73
2022/04/21 06:19:50;;;;;;;4.73;2.30;;;19.10;70.50;;;;;;5052599;28;20172;-74
2022/04/21 06:22:17;;;;;;;10.00;2.20;;;19.10;70.90;;;;;;5052663;28;20217;-74
2022/04/21 06:24:45;;;;;;;8.00;1.70;;;19.10;71.10;;;;;;5052944;28;20211;-73
2022/04/21 06:27:12;;;;;;;7.87;1.70;;;19.10;71.20;;;;;;5061469;28;20176;-72
2022/04/21 06:29:40;;;;;;;4.77;1.63;;;19.10;71.00;;;;;;5059485;28;20612;-73
2022/04/21 06:32:07;;;;;;;12.33;2.20;;;19.10;70.70;;;;;;5056096;28;20214;-71
2022/04/21 06:34:35;;;;;;;8.33;2.27;;;19.10;70.80;;;;;;5056788;28;20186;-72
2022/04/21 06:37:03;;;;;;;6.23;1.63;;;19.10;70.60;;;;;;5047940;28;20242;-73
2022/04/21 06:39:30;;;;;;;10.03;1.90;;;19.10;69.70;;;;;;5051596;28;20182;-72
2022/04/21 06:41:57;;;;;;;7.93;1.80;;;19.00;69.10;;;;;;5058515;28;20237;-71
2022/04/21 06:49:55;;;;;;;9.93;1.63;;;19.10;68.10;;;;;;5050544;28;20186;-71
2022/04/21 06:52:23;;;;;;;4.50;1.50;;;19.10;67.40;;;;;;5049770;28;20183;-72
2022/04/21 06:58:12;;;;;;;6.53;1.70;;;19.20;66.40;;;;;;5049590;28;20622;-71
2022/04/21 07:00:40;;;;;;;6.23;1.63;;;19.20;66.80;;;;;;5052250;28;20653;-71
2022/04/21 07:03:08;;;;;;;3.83;1.60;;;19.10;67.00;;;;;;5054886;28;20593;-72
2022/04/21 07:05:36;;;;;;;4.37;1.57;;;19.20;67.00;;;;;;5052457;28;20198;-73
2022/04/21 07:08:03;;;;;;;8.50;1.67;;;19.10;66.50;;;;;;5049831;28;20184;-71
2022/04/21 07:10:30;;;;;;;5.90;1.90;;;19.10;66.10;;;;;;5043958;28;20248;-73
2022/04/21 07:12:58;;;;;;;7.67;1.60;;;19.20;66.50;;;;;;5050921;28;20195;-73
2022/04/21 07:15:26;;;;;;;5.43;1.50;;;19.20;65.50;;;;;;5050312;28;20214;-72
2022/04/21 07:17:53;;;;;;;10.27;1.90;;;19.20;65.60;;;;;;5051733;28;20673;-72
2022/04/21 07:20:21;;;;;;;8.80;1.70;;;19.30;65.80;;;;;;5050066;28;20189;-72
2022/04/21 07:22:48;;;;;;;5.87;1.53;;;19.30;65.30;;;;;;5047112;28;20237;-71
2022/04/21 07:25:16;;;;;;;8.57;1.60;;;19.30;65.60;;;;;;5063023;28;20262;-73
2022/04/21 07:27:43;;;;;;;5.23;1.80;;;19.30;66.10;;;;;;5063261;28;20309;-70
2022/04/21 07:30:11;;;;;;;7.33;1.73;;;19.30;64.40;;;;;;5047222;28;20638;-71
2022/04/21 07:32:38;;;;;;;4.47;1.67;;;19.30;64.30;;;;;;5051927;28;20188;-72
2022/04/21 07:35:06;;;;;;;8.80;1.40;;;19.30;64.50;;;;;;5051675;28;20210;-74
2022/04/21 07:37:36;;;;;;;5.37;1.20;;;19.30;64.40;;;;;;5068576;28;20668;-72
2022/04/21 07:40:05;;;;;;;6.13;1.70;;;19.30;64.20;;;;;;5051351;28;20196;-73
2022/04/21 07:42:32;;;;;;;8.83;1.60;;;19.20;64.50;;;;;;5051433;28;20224;-72
2022/04/21 07:45:01;;;;;;;7.70;1.40;;;19.20;64.30;;;;;;5065244;28;20191;-72
2022/04/21 07:47:29;;;;;;;7.07;1.80;;;19.30;65.20;;;;;;5073704;28;20172;-72
2022/04/21 07:49:56;;;;;;;7.13;1.83;;;19.30;64.30;;;;;;5057526;28;20719;-71
2022/04/21 07:55:26;;;;;;;10.63;2.00;;;19.30;64.10;;;;;;5052746;28;20267;-74
2022/04/21 07:57:58;;;;;;;6.90;1.83;;;19.30;63.30;;;;;;5053900;28;20673;-69
2022/04/21 08:00:26;;;;;;;7.30;1.73;;;19.30;63.50;;;;;;5057172;28;20184;-71
2022/04/21 08:02:53;;;;;;;4.67;1.67;;;19.30;63.70;;;;;;5065073;28;20544;-71
2022/04/21 08:05:22;;;;;;;6.13;1.70;;;19.30;63.20;;;;;;5075318;28;20188;-72
2022/04/21 08:07:50;;;;;;;5.97;1.40;;;19.30;63.40;;;;;;5074642;28;20535;-73
2022/04/21 08:10:18;;;;;;;8.67;1.63;;;19.30;63.20;;;;;;5053991;28;20246;-72
2022/04/21 08:12:53;;;;;;;7.30;1.57;;;19.30;63.20;;;;;;5047078;28;20180;-73
2022/04/21 08:15:27;;;;;;;7.27;1.73;;;19.30;62.70;;;;;;5067167;28;20194;-74
2022/04/21 08:17:59;;;;;;;4.87;1.40;;;19.30;61.90;;;;;;5067513;28;20205;-72
2022/04/21 08:20:29;;;;;;;7.10;1.87;;;19.30;62.30;;;;;;5050660;28;20191;-72
2022/04/21 08:22:57;;;;;;;5.17;1.73;;;19.30;62.90;;;;;;5054610;28;20176;-72
2022/04/21 08:33:39;;;;;;;5.13;1.90;;;19.30;63.00;;;;;;5072540;28;20205;-71
2022/04/21 08:36:07;;;;;;;7.73;2.40;;;19.30;63.30;;;;;;5060403;28;20187;-71
2022/04/21 08:38:35;;;;;;;6.00;1.90;;;19.30;64.20;;;;;;5054450;28;20196;-72
2022/04/21 08:41:11;;;;;;;5.47;1.80;;;19.30;65.30;;;;;;5052915;28;20192;-70
2022/04/21 08:43:38;;;;;;;5.30;1.53;;;19.30;66.00;;;;;;5054590;28;20233;-71
2022/04/21 08:46:08;;;;;;;9.77;1.77;;;19.30;66.30;;;;;;5054321;28;20191;-72
2022/04/21 08:48:35;;;;;;;11.20;2.00;;;19.20;66.60;;;;;;5052201;28;20180;-72
2022/04/21 08:51:08;;;;;;;9.13;1.90;;;19.20;68.00;;;;;;5034394;28;20184;-71
2022/04/21 08:53:35;;;;;;;6.47;1.90;;;19.00;69.30;;;;;;5042129;28;20317;-71
2022/04/21 08:56:03;;;;;;;10.10;1.93;;;19.00;70.20;;;;;;5068404;28;20306;-72
2022/04/21 08:58:30;;;;;;;6.87;2.30;;;18.90;71.10;;;;;;5053274;28;20269;-71
2022/04/21 09:00:58;;;;;;;6.33;2.37;;;18.90;71.90;;;;;;5055952;28;20190;-72
2022/04/21 09:03:26;;;;;;;11.17;2.67;;;18.90;71.90;;;;;;5055087;28;20187;-72
2022/04/21 09:05:53;;;;;;;10.67;2.20;;;18.90;71.50;;;;;;5053730;28;20275;-72
2022/04/21 09:08:28;;;;;;;10.00;2.27;;;18.90;71.50;;;;;;5046754;28;20203;-72
2022/04/21 09:11:04;;;;;;;10.33;2.53;;;18.90;72.00;;;;;;5038501;28;20188;-72
2022/04/21 09:13:36;;;;;;;5.60;1.80;;;18.90;72.10;;;;;;5056030;28;20193;-73
2022/04/21 09:16:05;;;;;;;13.63;2.40;;;18.90;72.10;;;;;;5052298;28;20188;-71
2022/04/21 09:18:43;;;;;;;10.87;2.53;;;19.00;72.60;;;;;;5042469;28;20344;-72
2022/04/21 09:21:15;;;;;;;11.63;2.00;;;19.00;72.80;;;;;;5047015;28;20183;-72
2022/04/21 09:23:44;;;;;;;7.33;2.10;;;19.00;72.90;;;;;;5036639;28;20203;-73
2022/04/21 09:26:21;;;;;;;9.23;2.20;;;19.00;72.50;;;;;;5049349;28;20222;-71
2022/04/21 09:28:56;;;;;;;9.20;2.20;;;19.00;72.20;;;;;;5033872;28;20168;-72
2022/04/21 09:31:26;;;;;;;7.80;2.07;;;18.90;72.30;;;;;;5034628;28;20183;-72
2022/04/21 09:33:55;;;;;;;9.80;2.17;;;18.90;71.90;;;;;;5044444;28;20211;-71
2022/04/21 09:36:22;;;;;;;6.40;1.73;;;18.90;71.50;;;;;;5053665;28;20654;-71
2022/04/21 09:39:01;;;;;;;5.37;2.00;;;18.80;70.70;;;;;;5053103;28;20207;-73
2022/04/21 09:41:32;;;;;;;12.63;2.60;;;18.80;71.60;;;;;;5053499;28;20301;-72
2022/04/21 09:46:57;;;;;;;5.47;1.87;;;18.80;72.70;;;;;;5043788;28;20190;-73
2022/04/21 09:49:35;;;;;;;8.33;2.13;;;18.70;74.10;;;;;;5055270;28;20248;-72
2022/04/21 09:52:03;;;;;;;11.33;2.57;;;18.70;75.50;;;;;;5073037;28;20179;-73
2022/04/21 09:54:31;;;;;;;11.17;2.70;;;18.60;77.10;;;;;;5053186;28;20172;-72
2022/04/21 09:56:58;;;;;;;12.57;2.70;;;18.50;78.80;;;;;;5054597;28;20194;-72
2022/04/21 09:59:26;;;;;;;10.43;2.73;;;18.40;79.50;;;;;;5072721;28;20203;-72
2022/04/21 10:01:54;;;;;;;8.10;2.53;;;18.30;79.90;;;;;;5054502;28;20187;-72
2022/04/21 10:04:22;;;;;;;9.97;2.43;;;18.30;79.80;;;;;;5055839;28;20172;-73
2022/04/21 10:06:50;;;;;;;11.77;2.30;;;18.20;79.70;;;;;;5048557;28;20715;-72
2022/04/21 10:09:17;;;;;;;9.60;2.50;;;18.20;80.20;;;;;;5062885;28;20191;-72
2022/04/21 10:11:45;;;;;;;12.00;2.87;;;18.20;80.80;;;;;;5053158;28;20191;-73
2022/04/21 10:14:15;;;;;;;11.93;2.80;;;18.10;82.10;;;;;;5052934;28;20259;-72
2022/04/21 10:16:43;;;;;;;11.77;2.60;;;18.00;82.70;;;;;;5052031;28;20215;-73
2022/04/21 10:19:13;;;;;;;10.73;2.30;;;18.00;83.30;;;;;;5033247;28;20300;-72
2022/04/21 10:22:00;;;;;;;17.40;2.90;;;18.00;83.70;;;;;;5032723;28;20173;-72
2022/04/21 10:24:32;;;;;;;11.63;2.53;;;18.00;83.70;;;;;;5048243;28;20728;-71
2022/04/21 10:26:59;;;;;;;10.83;1.90;;;18.00;83.10;;;;;;5051876;28;20188;-71
2022/04/21 10:29:27;;;;;;;9.10;2.60;;;18.00;82.70;;;;;;5052978;28;20168;-73
2022/04/21 10:32:05;;;;;;;9.90;2.20;;;18.10;82.70;;;;;;5056160;28;20179;-72
2022/04/21 10:34:38;;;;;;;6.57;1.80;;;18.10;81.90;;;;;;5036935;28;20235;-71
2022/04/21 10:37:05;;;;;;;8.37;2.13;;;18.20;81.50;;;;;;5033511;28;20230;-71
2022/04/21 10:39:33;;;;;;;10.33;2.13;;;18.20;81.50;;;;;;5033858;28;20969;-72
2022/04/21 10:42:19;;;;;;;9.17;2.40;;;18.20;81.10;;;;;;5052171;28;20281;-72
2022/04/21 10:44:51;;;;;;;7.30;2.00;;;18.30;81.20;;;;;;5032638;28;20662;-72
2022/04/21 10:47:36;;;;;;;7.90;2.13;;;18.30;80.90;;;;;;5050553;28;20184;-72
2022/04/21 10:50:11;;;;;;;16.97;2.40;;;18.20;80.70;;;;;;5053602;28;20192;-73
2022/04/21 10:57:55;;;;;;;11.73;2.57;;;18.30;80.50;;;;;;5056484;28;20214;-71
2022/04/21 11:00:27;;;;;;;12.03;2.47;;;18.30;80.60;;;;;;5051905;28;20186;-72
2022/04/21 11:03:09;;;;;;;6.60;1.97;;;18.30;80.80;;;;;;5064204;28;20183;-72
2022/04/21 11:05:39;;;;;;;14.47;4.63;;;18.30;80.70;;;;;;5069707;28;20179;-73
2022/04/21 11:08:14;;;;;;;10.90;4.00;;;18.30;80.50;;;;;;5070943;28;20587;-71
2022/04/21 11:10:45;;;;;;;12.37;3.20;;;18.30;79.70;;;;;;5058737;28;20642;-71
2022/04/21 11:13:19;;;;;;;10.37;2.70;;;18.20;80.10;;;;;;5050428;28;20176;-73
2022/04/21 11:15:50;;;;;;;7.93;2.57;;;18.20;80.00;;;;;;5034322;28;20186;-72
2022/04/21 11:18:22;;;;;;;8.80;2.23;;;18.20;80.00;;;;;;5045915;28;20212;-73
2022/04/21 11:21:12;;;;;;;13.70;2.67;;;18.20;80.40;;;;;;5072659;28;20270;-71
2022/04/21 11:23:45;;;;;;;14.10;2.33;;;18.10;80.10;;;;;;5036053;28;20242;-74
2022/04/21 11:26:13;;;;;;;9.03;2.80;;;18.20;80.20;;;;;;5036000;28;20635;-74
2022/04/21 11:28:45;;;;;;;10.27;2.53;;;18.10;81.30;;;;;;5050761;28;20184;-72
2022/04/21 11:31:14;;;;;;;10.30;2.77;;;18.00;82.20;;;;;;5055889;28;20646;-71
2022/04/21 11:33:44;;;;;;;8.70;2.17;;;17.80;82.50;;;;;;5072833;28;20190;-74
2022/04/21 11:36:16;;;;;;;11.43;2.40;;;17.70;82.70;;;;;;5058793;28;20183;-73
2022/04/21 11:38:46;;;;;;;9.13;1.73;;;17.50;83.80;;;;;;5062608;28;20222;-72
2022/04/21 11:41:15;;;;;;;9.40;2.43;;;17.40;84.30;;;;;;5065988;28;20187;-72
2022/04/21 11:43:49;;;;;;;5.80;1.97;;;17.30;84.90;;;;;;5063047;28;20585;-74
2022/04/21 11:46:20;;;;;;;9.07;2.03;;;17.20;85.50;;;;;;5065993;28;20266;-72
2022/04/21 11:48:56;;;;;;;9.83;2.43;;;17.10;86.40;;;;;;5074381;28;20550;-73
2022/04/21 11:51:26;;;;;;;11.60;1.97;;;17.10;87.30;;;;;;5065853;28;20175;-73
2022/04/21 11:53:55;;;;;;;6.73;1.70;;;17.00;88.30;;;;;;5062115;28;20261;-75
2022/04/21 11:56:23;;;;;;;8.83;1.90;;;16.90;89.30;;;;;;5033780;28;20188;-77
2022/04/21 11:58:50;;;;;;;8.43;2.13;;;16.80;89.40;;;;;;5054091;28;20299;-74
2022/04/21 12:06:58;;;;;;;9.40;2.10;;;16.80;90.10;;;;;;5050170;28;20187;-77
2022/04/21 12:09:28;;;;;;;8.70;2.37;;;16.80;90.10;;;;;;5042948;28;20270;-77
2022/04/21 12:11:57;;;;;;;11.47;2.60;;;16.70;90.30;;;;;;5054211;28;20187;-77
2022/04/21 12:14:25;;;;;;;9.53;2.13;;;16.70;90.10;;;;;;5054558;28;20183;-75
2022/04/21 12:16:53;;;;;;;18.23;2.83;;;16.70;90.00;;;;;;5046836;28;20643;-74
2022/04/21 12:19:39;;;;;;;10.20;2.20;;;16.70;90.40;;;;;;5074983;28;20673;-74
2022/04/21 12:22:07;;;;;;;15.93;2.60;;;16.70;90.30;;;;;;5063700;28;20209;-75
2022/04/21 12:24:36;;;;;;;11.33;2.33;;;16.70;90.40;;;;;;5063607;28;20194;-74
2022/04/21 12:27:11;;;;;;;13.43;2.67;;;16.70;90.30;;;;;;5070174;28;20182;-75
2022/04/21 12:29:58;;;;;;;14.00;2.30;;;16.70;90.50;;;;;;5057648;28;20637;-77
2022/04/21 12:32:30;;;;;;;19.53;2.97;;;16.70;90.60;;;;;;5053752;28;20183;-74
2022/04/21 12:35:03;;;;;;;11.93;2.73;;;16.70;90.60;;;;;;5051679;28;20180;-73
2022/04/21 12:37:38;;;;;;;18.90;3.03;;;16.70;90.40;;;;;;5054887;28;20536;-74
2022/04/21 12:40:11;;;;;;;16.37;3.30;;;16.70;90.30;;;;;;5054312;28;20217;-73
2022/04/21 12:42:43;;;;;;;18.77;2.90;;;16.70;90.50;;;;;;5054541;28;20274;-72
2022/04/21 12:45:11;;;;;;;17.03;3.07;;;16.70;90.10;;;;;;5052887;28;20182;-74
2022/04/21 12:47:46;;;;;;;12.57;2.23;;;16.70;90.30;;;;;;5053989;28;20603;-77
2022/04/21 12:50:24;;;;;;;13.67;2.63;;;16.70;90.40;;;;;;5054415;28;20178;-77
2022/04/21 12:52:56;;;;;;;16.53;2.93;;;16.70;90.80;;;;;;5035311;28;20211;-78
2022/04/21 12:55:26;;;;;;;13.30;3.00;;;16.60;91.10;;;;;;5034586;28;20172;-77
2022/04/21 12:58:10;;;;;;;15.57;4.50;;;16.60;91.10;;;;;;5050802;28;20290;-77
2022/04/21 13:00:42;;;;;;;15.83;3.33;;;16.60;91.30;;;;;;5055011;28;20174;-80
2022/04/21 13:03:14;;;;;;;18.03;3.30;;;16.60;91.40;;;;;;5055318;28;20236;-78
2022/04/21 13:05:54;;;;;;;15.77;4.40;;;16.60;91.70;;;;;;5053742;28;20594;-78
2022/04/21 13:08:24;;;;;;;16.47;2.93;;;16.50;91.80;;;;;;5053044;28;20209;-78
2022/04/21 13:10:53;;;;;;;17.63;3.70;;;16.50;91.80;;;;;;5053928;28;20191;-79
2022/04/21 13:13:21;;;;;;;19.17;3.10;;;16.50;92.00;;;;;;5052728;28;20176;-78
2022/04/21 13:15:49;;;;;;;18.43;3.10;;;16.50;92.00;;;;;;5054205;28;20212;-79
2022/04/21 13:18:17;;;;;;;16.80;2.93;;;16.50;92.00;;;;;;5054083;28;20222;-77
2022/04/21 13:23:31;;;;;;;18.23;2.93;;;16.50;92.00;;;;;;5054735;28;20293;-76
2022/04/21 13:26:00;;;;;;;11.63;2.67;;;16.50;92.20;;;;;;5053765;28;20185;-77
2022/04/21 13:28:28;;;;;;;17.40;2.83;;;16.50;92.10;;;;;;5052711;28;20618;-75
2022/04/21 13:33:40;;;;;;;13.10;3.00;;;16.30;90.80;;;;;;5053319;28;20559;-79
2022/04/21 13:36:08;;;;;;;13.87;3.00;;;16.30;90.40;;;;;;5052340;28;20245;-78
2022/04/21 13:38:35;;;;;;;9.53;2.37;;;16.30;89.70;;;;;;5053133;28;20211;-79
2022/04/21 13:41:02;;;;;;;8.90;1.63;;;16.30;89.60;;;;;;5053649;28;20183;-77
2022/04/21 13:43:30;;;;;;;10.07;1.93;;;16.30;89.10;;;;;;5053578;28;20617;-77
2022/04/21 13:45:58;;;;;;;8.63;1.73;;;16.30;88.80;;;;;;5052536;28;20321;-75
2022/04/21 13:48:25;;;;;;;9.20;1.87;;;16.30;88.70;;;;;;5052693;28;20184;-77
2022/04/21 13:50:53;;;;;;;13.47;2.30;;;16.30;89.00;;;;;;5053680;28;20186;-76
2022/04/21 13:53:21;;;;;;;9.63;2.00;;;16.30;89.00;;;;;;5041203;28;20192;-77
2022/04/21 13:55:49;;;;;;;12.17;1.90;;;16.30;89.00;;;;;;5054368;28;20208;-78
2022/04/21 13:58:16;;;;;;;14.93;2.20;;;16.30;89.30;;;;;;5045909;28;20770;-80
2022/04/21 14:00:48;;;;;;;15.93;2.50;;;16.30;88.90;;;;;;5033893;28;20176;-76